sensor_id;sensor_type;location;lat;lon;timestamp;pressure;altitude;pressure_sealevel;temperature
15680;BMP180;15488;48.114;11.532;2023-03-12T00:00:23;94889.00;;;12.50
15680;BMP180;15488;48.114;11.532;2023-03-12T00:02:51;94890.00;;;12.50
15680;BMP180;15488;48.114;11.532;2023-03-12T00:05:18;94898.00;;;12.50
15680;BMP180;15488;48.114;11.532;2023-03-12T00:07:45;94888.00;;;12.50
15680;BMP180;15488;48.114;11.532;2023-03-12T00:10:13;94893.00;;;12.50
15680;BMP180;15488;48.114;11.532;2023-03-12T00:12:40;94887.00;;;12.50
15680;BMP180;15488;48.114;11.532;2023-03-12T00:15:10;94882.00;;;12.50
15680;BMP180;15488;48.114;11.532;2023-03-12T00:17:37;94888.00;;;12.50
15680;BMP180;15488;48.114;11.532;2023-03-12T00:20:05;94888.00;;;12.50
15680;BMP180;15488;48.114;11.532;2023-03-12T00:22:33;94879.00;;;12.50
15680;BMP180;15488;48.114;11.532;2023-03-12T00:25:00;94897.00;;;12.50
15680;BMP180;15488;48.114;11.532;2023-03-12T00:27:28;94885.00;;;12.50
15680;BMP180;15488;48.114;11.532;2023-03-12T00:29:57;94887.00;;;12.40
15680;BMP180;15488;48.114;11.532;2023-03-12T00:32:26;94885.00;;;12.50
15680;BMP180;15488;48.114;11.532;2023-03-12T00:34:54;94884.00;;;12.50
15680;BMP180;15488;48.114;11.532;2023-03-12T00:37:22;94885.00;;;12.50
15680;BMP180;15488;48.114;11.532;2023-03-12T00:39:50;94898.00;;;12.50
15680;BMP180;15488;48.114;11.532;2023-03-12T00:42:18;94891.00;;;12.50
15680;BMP180;15488;48.114;11.532;2023-03-12T00:44:46;94887.00;;;12.40
15680;BMP180;15488;48.114;11.532;2023-03-12T00:47:13;94889.00;;;12.40
15680;BMP180;15488;48.114;11.532;2023-03-12T00:49:42;94808.00;;;12.50
15680;BMP180;15488;48.114;11.532;2023-03-12T00:52:09;94889.00;;;12.40
15680;BMP180;15488;48.114;11.532;2023-03-12T00:54:37;94887.00;;;12.40
15680;BMP180;15488;48.114;11.532;2023-03-12T00:57:04;94887.00;;;12.40
15680;BMP180;15488;48.114;11.532;2023-03-12T00:59:32;94886.00;;;12.40
15680;BMP180;15488;48.114;11.532;2023-03-12T01:02:00;94885.00;;;12.40
15680;BMP180;15488;48.114;11.532;2023-03-12T01:04:27;94893.00;;;12.40
15680;BMP180;15488;48.114;11.532;2023-03-12T01:06:56;94886.00;;;12.40
15680;BMP180;15488;48.114;11.532;2023-03-12T01:09:23;94879.00;;;12.40
15680;BMP180;15488;48.114;11.532;2023-03-12T01:11:51;94890.00;;;12.40
15680;BMP180;15488;48.114;11.532;2023-03-12T01:14:18;94886.00;;;12.40
15680;BMP180;15488;48.114;11.532;2023-03-12T01:16:46;94887.00;;;12.30
15680;BMP180;15488;48.114;11.532;2023-03-12T01:19:13;94884.00;;;12.30
15680;BMP180;15488;48.114;11.532;2023-03-12T01:21:41;94884.00;;;12.30
15680;BMP180;15488;48.114;11.532;2023-03-12T01:24:09;94887.00;;;12.30
15680;BMP180;15488;48.114;11.532;2023-03-12T01:26:37;94890.00;;;12.30
15680;BMP180;15488;48.114;11.532;2023-03-12T01:29:05;94890.00;;;12.30
15680;BMP180;15488;48.114;11.532;2023-03-12T01:31:32;94891.00;;;12.40
15680;BMP180;15488;48.114;11.532;2023-03-12T01:34:00;94898.00;;;12.30
15680;BMP180;15488;48.114;11.532;2023-03-12T01:36:28;94895.00;;;12.30
15680;BMP180;15488;48.114;11.532;2023-03-12T01:38:58;94899.00;;;12.30
15680;BMP180;15488;48.114;11.532;2023-03-12T01:41:28;94897.00;;;12.30
15680;BMP180;15488;48.114;11.532;2023-03-12T01:43:58;94894.00;;;12.30
15680;BMP180;15488;48.114;11.532;2023-03-12T01:46:30;94893.00;;;12.30
15680;BMP180;15488;48.114;11.532;2023-03-12T01:49:02;94902.00;;;12.30
15680;BMP180;15488;48.114;11.532;2023-03-12T01:51:34;94897.00;;;12.30
15680;BMP180;15488;48.114;11.532;2023-03-12T01:54:05;94897.00;;;12.30
15680;BMP180;15488;48.114;11.532;2023-03-12T01:56:35;94886.00;;;12.30
15680;BMP180;15488;48.114;11.532;2023-03-12T01:59:06;94882.00;;;12.40
15680;BMP180;15488;48.114;11.532;2023-03-12T02:01:34;94881.00;;;12.40
15680;BMP180;15488;48.114;11.532;2023-03-12T02:04:02;94881.00;;;12.40
15680;BMP180;15488;48.114;11.532;2023-03-12T02:06:35;94878.00;;;12.40
15680;BMP180;15488;48.114;11.532;2023-03-12T02:09:05;94890.00;;;12.40
15680;BMP180;15488;48.114;11.532;2023-03-12T02:11:34;94899.00;;;12.40
15680;BMP180;15488;48.114;11.532;2023-03-12T02:14:02;94896.00;;;12.40
15680;BMP180;15488;48.114;11.532;2023-03-12T02:16:29;94904.00;;;12.40
15680;BMP180;15488;48.114;11.532;2023-03-12T02:19:00;94904.00;;;12.40
15680;BMP180;15488;48.114;11.532;2023-03-12T02:21:29;94911.00;;;12.40
15680;BMP180;15488;48.114;11.532;2023-03-12T02:24:03;94908.00;;;12.40
15680;BMP180;15488;48.114;11.532;2023-03-12T02:26:34;94912.00;;;12.30
15680;BMP180;15488;48.114;11.532;2023-03-12T02:29:02;94915.00;;;12.30
15680;BMP180;15488;48.114;11.532;2023-03-12T02:31:36;94924.00;;;12.30
15680;BMP180;15488;48.114;11.532;2023-03-12T02:34:05;94923.00;;;12.30
15680;BMP180;15488;48.114;11.532;2023-03-12T02:36:32;94919.00;;;12.30
15680;BMP180;15488;48.114;11.532;2023-03-12T02:39:00;94922.00;;;12.20
15680;BMP180;15488;48.114;11.532;2023-03-12T02:41:30;94919.00;;;12.20
15680;BMP180;15488;48.114;11.532;2023-03-12T02:44:03;94925.00;;;12.20
15680;BMP180;15488;48.114;11.532;2023-03-12T02:46:34;94926.00;;;12.20
15680;BMP180;15488;48.114;11.532;2023-03-12T02:49:02;94924.00;;;12.20
15680;BMP180;15488;48.114;11.532;2023-03-12T02:51:30;94919.00;;;12.20
15680;BMP180;15488;48.114;11.532;2023-03-12T02:53:57;94926.00;;;12.10
15680;BMP180;15488;48.114;11.532;2023-03-12T02:56:26;94932.00;;;12.10
15680;BMP180;15488;48.114;11.532;2023-03-12T02:58:54;94926.00;;;12.10
15680;BMP180;15488;48.114;11.532;2023-03-12T03:01:23;94924.00;;;12.10
15680;BMP180;15488;48.114;11.532;2023-03-12T03:03:51;94930.00;;;12.10
15680;BMP180;15488;48.114;11.532;2023-03-12T03:06:19;94933.00;;;12.10
15680;BMP180;15488;48.114;11.532;2023-03-12T03:08:47;94929.00;;;12.10
15680;BMP180;15488;48.114;11.532;2023-03-12T03:11:14;94928.00;;;12.10
15680;BMP180;15488;48.114;11.532;2023-03-12T03:13:42;94921.00;;;12.10
15680;BMP180;15488;48.114;11.532;2023-03-12T03:16:09;94930.00;;;12.10
15680;BMP180;15488;48.114;11.532;2023-03-12T03:18:39;94852.00;;;12.00
15680;BMP180;15488;48.114;11.532;2023-03-12T03:21:08;94933.00;;;12.10
15680;BMP180;15488;48.114;11.532;2023-03-12T03:23:41;94928.00;;;12.10
15680;BMP180;15488;48.114;11.532;2023-03-12T03:26:09;94930.00;;;12.10
15680;BMP180;15488;48.114;11.532;2023-03-12T03:28:36;94937.00;;;12.10
15680;BMP180;15488;48.114;11.532;2023-03-12T03:31:04;94942.00;;;12.10
15680;BMP180;15488;48.114;11.532;2023-03-12T03:33:34;94935.00;;;12.10
15680;BMP180;15488;48.114;11.532;2023-03-12T03:36:04;94936.00;;;12.10
15680;BMP180;15488;48.114;11.532;2023-03-12T03:38:32;94939.00;;;12.10
15680;BMP180;15488;48.114;11.532;2023-03-12T03:41:01;94936.00;;;12.10
15680;BMP180;15488;48.114;11.532;2023-03-12T03:43:28;94935.00;;;12.20
15680;BMP180;15488;48.114;11.532;2023-03-12T03:46:00;94939.00;;;12.10
15680;BMP180;15488;48.114;11.532;2023-03-12T03:48:28;94939.00;;;12.10
15680;BMP180;15488;48.114;11.532;2023-03-12T03:50:59;94938.00;;;12.10
15680;BMP180;15488;48.114;11.532;2023-03-12T03:53:29;94942.00;;;12.20
15680;BMP180;15488;48.114;11.532;2023-03-12T03:55:56;94940.00;;;12.20
15680;BMP180;15488;48.114;11.532;2023-03-12T03:58:24;94946.00;;;12.20
15680;BMP180;15488;48.114;11.532;2023-03-12T04:00:52;94952.00;;;12.20
15680;BMP180;15488;48.114;11.532;2023-03-12T04:03:20;94955.00;;;12.20
15680;BMP180;15488;48.114;11.532;2023-03-12T04:05:53;94956.00;;;12.20
15680;BMP180;15488;48.114;11.532;2023-03-12T04:08:21;94965.00;;;12.20
15680;BMP180;15488;48.114;11.532;2023-03-12T04:10:50;94963.00;;;12.30
15680;BMP180;15488;48.114;11.532;2023-03-12T04:13:17;94965.00;;;12.30
15680;BMP180;15488;48.114;11.532;2023-03-12T04:15:49;94964.00;;;12.30
15680;BMP180;15488;48.114;11.532;2023-03-12T04:18:18;94971.00;;;12.30
15680;BMP180;15488;48.114;11.532;2023-03-12T04:20:46;94973.00;;;12.30
15680;BMP180;15488;48.114;11.532;2023-03-12T04:23:13;94974.00;;;12.30
15680;BMP180;15488;48.114;11.532;2023-03-12T04:25:40;94974.00;;;12.30
15680;BMP180;15488;48.114;11.532;2023-03-12T04:28:09;94969.00;;;12.30
15680;BMP180;15488;48.114;11.532;2023-03-12T04:30:37;94969.00;;;12.30
15680;BMP180;15488;48.114;11.532;2023-03-12T04:33:05;94963.00;;;12.30
15680;BMP180;15488;48.114;11.532;2023-03-12T04:35:32;94962.00;;;12.40
15680;BMP180;15488;48.114;11.532;2023-03-12T04:38:01;94969.00;;;12.30
15680;BMP180;15488;48.114;11.532;2023-03-12T04:40:29;94966.00;;;12.40
15680;BMP180;15488;48.114;11.532;2023-03-12T04:42:57;94972.00;;;12.40
15680;BMP180;15488;48.114;11.532;2023-03-12T04:45:25;94970.00;;;12.40
15680;BMP180;15488;48.114;11.532;2023-03-12T04:47:53;94971.00;;;12.40
15680;BMP180;15488;48.114;11.532;2023-03-12T04:50:20;94969.00;;;12.40
15680;BMP180;15488;48.114;11.532;2023-03-12T04:52:48;94968.00;;;12.40
15680;BMP180;15488;48.114;11.532;2023-03-12T04:55:15;94965.00;;;12.50
15680;BMP180;15488;48.114;11.532;2023-03-12T04:57:43;94959.00;;;12.50
15680;BMP180;15488;48.114;11.532;2023-03-12T05:00:12;94952.00;;;12.40
15680;BMP180;15488;48.114;11.532;2023-03-12T05:02:41;94952.00;;;12.50
15680;BMP180;15488;48.114;11.532;2023-03-12T05:05:10;94951.00;;;12.40
15680;BMP180;15488;48.114;11.532;2023-03-12T05:07:37;94946.00;;;12.50
15680;BMP180;15488;48.114;11.532;2023-03-12T05:10:06;94946.00;;;12.40
15680;BMP180;15488;48.114;11.532;2023-03-12T05:12:33;94948.00;;;12.50
15680;BMP180;15488;48.114;11.532;2023-03-12T05:15:01;94948.00;;;12.50
15680;BMP180;15488;48.114;11.532;2023-03-12T05:17:28;94947.00;;;12.50
15680;BMP180;15488;48.114;11.532;2023-03-12T05:19:57;94942.00;;;12.60
15680;BMP180;15488;48.114;11.532;2023-03-12T05:22:24;94939.00;;;12.50
15680;BMP180;15488;48.114;11.532;2023-03-12T05:24:52;94939.00;;;12.60
15680;BMP180;15488;48.114;11.532;2023-03-12T05:27:19;94936.00;;;12.60
15680;BMP180;15488;48.114;11.532;2023-03-12T05:29:47;94934.00;;;12.60
15680;BMP180;15488;48.114;11.532;2023-03-12T05:32:14;94942.00;;;12.60
15680;BMP180;15488;48.114;11.532;2023-03-12T05:34:42;94939.00;;;12.70
15680;BMP180;15488;48.114;11.532;2023-03-12T05:37:11;94947.00;;;12.60
15680;BMP180;15488;48.114;11.532;2023-03-12T05:39:38;94942.00;;;12.60
15680;BMP180;15488;48.114;11.532;2023-03-12T05:42:12;94952.00;;;12.60
15680;BMP180;15488;48.114;11.532;2023-03-12T05:44:39;94953.00;;;12.60
15680;BMP180;15488;48.114;11.532;2023-03-12T05:47:07;94951.00;;;12.60
15680;BMP180;15488;48.114;11.532;2023-03-12T05:49:35;94958.00;;;12.60
15680;BMP180;15488;48.114;11.532;2023-03-12T05:52:03;94967.00;;;12.60
15680;BMP180;15488;48.114;11.532;2023-03-12T05:54:32;94967.00;;;12.70
15680;BMP180;15488;48.114;11.532;2023-03-12T05:56:59;94963.00;;;12.70
15680;BMP180;15488;48.114;11.532;2023-03-12T05:59:28;94960.00;;;12.70
15680;BMP180;15488;48.114;11.532;2023-03-12T06:01:56;94973.00;;;12.70
15680;BMP180;15488;48.114;11.532;2023-03-12T06:04:24;94973.00;;;12.70
15680;BMP180;15488;48.114;11.532;2023-03-12T06:06:51;94967.00;;;12.70
15680;BMP180;15488;48.114;11.532;2023-03-12T06:09:19;94962.00;;;12.80
15680;BMP180;15488;48.114;11.532;2023-03-12T06:11:47;94963.00;;;12.80
15680;BMP180;15488;48.114;11.532;2023-03-12T06:14:15;94960.00;;;12.80
15680;BMP180;15488;48.114;11.532;2023-03-12T06:16:42;94955.00;;;12.80
15680;BMP180;15488;48.114;11.532;2023-03-12T06:19:11;94954.00;;;12.70
15680;BMP180;15488;48.114;11.532;2023-03-12T06:21:41;94963.00;;;12.80
15680;BMP180;15488;48.114;11.532;2023-03-12T06:24:09;94945.00;;;12.70
15680;BMP180;15488;48.114;11.532;2023-03-12T06:26:36;94937.00;;;12.70
15680;BMP180;15488;48.114;11.532;2023-03-12T06:29:06;94941.00;;;12.70
15680;BMP180;15488;48.114;11.532;2023-03-12T06:31:33;94939.00;;;12.70
15680;BMP180;15488;48.114;11.532;2023-03-12T06:34:01;94938.00;;;12.70
15680;BMP180;15488;48.114;11.532;2023-03-12T06:36:28;94950.00;;;12.70
15680;BMP180;15488;48.114;11.532;2023-03-12T06:38:56;94949.00;;;12.70
15680;BMP180;15488;48.114;11.532;2023-03-12T06:41:23;94940.00;;;12.70
15680;BMP180;15488;48.114;11.532;2023-03-12T06:43:51;94955.00;;;12.70
15680;BMP180;15488;48.114;11.532;2023-03-12T06:46:21;94964.00;;;12.70
15680;BMP180;15488;48.114;11.532;2023-03-12T06:48:50;94961.00;;;12.80
15680;BMP180;15488;48.114;11.532;2023-03-12T06:51:18;94971.00;;;12.70
15680;BMP180;15488;48.114;11.532;2023-03-12T06:53:45;94973.00;;;12.80
15680;BMP180;15488;48.114;11.532;2023-03-12T06:56:13;94971.00;;;12.80
15680;BMP180;15488;48.114;11.532;2023-03-12T06:58:41;94976.00;;;12.80
15680;BMP180;15488;48.114;11.532;2023-03-12T07:01:09;94983.00;;;12.80
15680;BMP180;15488;48.114;11.532;2023-03-12T07:03:38;94979.00;;;12.90
15680;BMP180;15488;48.114;11.532;2023-03-12T07:06:12;94979.00;;;12.90
15680;BMP180;15488;48.114;11.532;2023-03-12T07:08:40;94987.00;;;12.90
15680;BMP180;15488;48.114;11.532;2023-03-12T07:11:08;94985.00;;;12.90
15680;BMP180;15488;48.114;11.532;2023-03-12T07:13:36;94985.00;;;12.90
15680;BMP180;15488;48.114;11.532;2023-03-12T07:16:05;94988.00;;;12.90
15680;BMP180;15488;48.114;11.532;2023-03-12T07:18:32;94987.00;;;13.00
15680;BMP180;15488;48.114;11.532;2023-03-12T07:21:01;94984.00;;;13.00
15680;BMP180;15488;48.114;11.532;2023-03-12T07:23:28;94981.00;;;13.00
15680;BMP180;15488;48.114;11.532;2023-03-12T07:25:56;94988.00;;;13.10
15680;BMP180;15488;48.114;11.532;2023-03-12T07:28:23;94980.00;;;13.10
15680;BMP180;15488;48.114;11.532;2023-03-12T07:30:51;94985.00;;;13.20
15680;BMP180;15488;48.114;11.532;2023-03-12T07:33:20;94971.00;;;13.10
15680;BMP180;15488;48.114;11.532;2023-03-12T07:35:48;94973.00;;;13.20
15680;BMP180;15488;48.114;11.532;2023-03-12T07:38:17;94983.00;;;13.30
15680;BMP180;15488;48.114;11.532;2023-03-12T07:40:44;94979.00;;;13.30
15680;BMP180;15488;48.114;11.532;2023-03-12T07:43:15;94983.00;;;13.30
15680;BMP180;15488;48.114;11.532;2023-03-12T07:45:43;94971.00;;;13.40
15680;BMP180;15488;48.114;11.532;2023-03-12T07:48:11;94981.00;;;13.40
15680;BMP180;15488;48.114;11.532;2023-03-12T07:50:38;94980.00;;;13.40
15680;BMP180;15488;48.114;11.532;2023-03-12T07:53:06;94984.00;;;13.20
15680;BMP180;15488;48.114;11.532;2023-03-12T07:55:35;94982.00;;;13.50
15680;BMP180;15488;48.114;11.532;2023-03-12T07:58:02;94981.00;;;13.50
15680;BMP180;15488;48.114;11.532;2023-03-12T08:00:30;94977.00;;;13.60
15680;BMP180;15488;48.114;11.532;2023-03-12T08:02:58;94979.00;;;13.70
15680;BMP180;15488;48.114;11.532;2023-03-12T08:05:25;94990.00;;;13.70
15680;BMP180;15488;48.114;11.532;2023-03-12T08:07:54;94994.00;;;13.60
15680;BMP180;15488;48.114;11.532;2023-03-12T08:10:22;95007.00;;;13.70
15680;BMP180;15488;48.114;11.532;2023-03-12T08:12:51;94997.00;;;13.70
15680;BMP180;15488;48.114;11.532;2023-03-12T08:15:18;95002.00;;;13.80
15680;BMP180;15488;48.114;11.532;2023-03-12T08:17:46;95004.00;;;13.80
15680;BMP180;15488;48.114;11.532;2023-03-12T08:20:14;95010.00;;;13.80
15680;BMP180;15488;48.114;11.532;2023-03-12T08:22:42;94998.00;;;13.90
15680;BMP180;15488;48.114;11.532;2023-03-12T08:25:09;95004.00;;;13.90
15680;BMP180;15488;48.114;11.532;2023-03-12T08:27:37;94995.00;;;13.90
15680;BMP180;15488;48.114;11.532;2023-03-12T08:30:07;94996.00;;;13.90
15680;BMP180;15488;48.114;11.532;2023-03-12T08:32:36;95003.00;;;13.90
15680;BMP180;15488;48.114;11.532;2023-03-12T08:35:04;95007.00;;;14.00
15680;BMP180;15488;48.114;11.532;2023-03-12T08:37:31;95012.00;;;14.00
15680;BMP180;15488;48.114;11.532;2023-03-12T08:39:59;95017.00;;;14.00
15680;BMP180;15488;48.114;11.532;2023-03-12T08:42:27;95012.00;;;14.00
15680;BMP180;15488;48.114;11.532;2023-03-12T08:44:54;95012.00;;;14.00
15680;BMP180;15488;48.114;11.532;2023-03-12T08:47:23;95015.00;;;14.00
15680;BMP180;15488;48.114;11.532;2023-03-12T08:49:50;95024.00;;;14.00
15680;BMP180;15488;48.114;11.532;2023-03-12T08:52:18;95020.00;;;14.10
15680;BMP180;15488;48.114;11.532;2023-03-12T08:54:45;95026.00;;;14.10
15680;BMP180;15488;48.114;11.532;2023-03-12T08:57:13;95026.00;;;14.10
15680;BMP180;15488;48.114;11.532;2023-03-12T08:59:41;95028.00;;;14.10
15680;BMP180;15488;48.114;11.532;2023-03-12T09:02:11;95030.00;;;14.10
15680;BMP180;15488;48.114;11.532;2023-03-12T09:04:40;95032.00;;;14.10
15680;BMP180;15488;48.114;11.532;2023-03-12T09:07:07;95031.00;;;14.10
15680;BMP180;15488;48.114;11.532;2023-03-12T09:09:35;95029.00;;;14.20
15680;BMP180;15488;48.114;11.532;2023-03-12T09:12:03;95034.00;;;14.10
15680;BMP180;15488;48.114;11.532;2023-03-12T09:14:31;95021.00;;;14.20
15680;BMP180;15488;48.114;11.532;2023-03-12T09:16:58;95025.00;;;14.20
15680;BMP180;15488;48.114;11.532;2023-03-12T09:19:27;95030.00;;;14.30
15680;BMP180;15488;48.114;11.532;2023-03-12T09:21:56;95036.00;;;14.30
15680;BMP180;15488;48.114;11.532;2023-03-12T09:24:23;95032.00;;;14.30
15680;BMP180;15488;48.114;11.532;2023-03-12T09:26:51;95034.00;;;14.30
15680;BMP180;15488;48.114;11.532;2023-03-12T09:29:18;95038.00;;;14.30
15680;BMP180;15488;48.114;11.532;2023-03-12T09:31:46;95034.00;;;14.30
15680;BMP180;15488;48.114;11.532;2023-03-12T09:34:14;94913.00;;;14.30
15680;BMP180;15488;48.114;11.532;2023-03-12T09:36:41;95043.00;;;14.30
15680;BMP180;15488;48.114;11.532;2023-03-12T09:39:10;95042.00;;;14.30
15680;BMP180;15488;48.114;11.532;2023-03-12T09:41:39;95044.00;;;14.30
15680;BMP180;15488;48.114;11.532;2023-03-12T09:44:12;95054.00;;;14.30
15680;BMP180;15488;48.114;11.532;2023-03-12T09:46:46;95051.00;;;14.30
15680;BMP180;15488;48.114;11.532;2023-03-12T09:49:18;95051.00;;;14.20
15680;BMP180;15488;48.114;11.532;2023-03-12T09:51:47;95046.00;;;14.20
15680;BMP180;15488;48.114;11.532;2023-03-12T09:54:23;95041.00;;;14.20
15680;BMP180;15488;48.114;11.532;2023-03-12T09:56:54;95044.00;;;14.20
15680;BMP180;15488;48.114;11.532;2023-03-12T09:59:23;95043.00;;;14.20
15680;BMP180;15488;48.114;11.532;2023-03-12T10:01:53;95038.00;;;14.10
15680;BMP180;15488;48.114;11.532;2023-03-12T10:04:40;95045.00;;;14.10
15680;BMP180;15488;48.114;11.532;2023-03-12T10:07:13;95049.00;;;14.10
15680;BMP180;15488;48.114;11.532;2023-03-12T10:10:05;95049.00;;;14.20
15680;BMP180;15488;48.114;11.532;2023-03-12T10:12:42;95049.00;;;14.20
15680;BMP180;15488;48.114;11.532;2023-03-12T10:15:23;95042.00;;;14.20
15680;BMP180;15488;48.114;11.532;2023-03-12T10:18:01;95040.00;;;14.10
15680;BMP180;15488;48.114;11.532;2023-03-12T10:23:37;95052.00;;;14.20
15680;BMP180;15488;48.114;11.532;2023-03-12T10:26:12;95040.00;;;14.20
15680;BMP180;15488;48.114;11.532;2023-03-12T10:28:44;95046.00;;;14.20
15680;BMP180;15488;48.114;11.532;2023-03-12T10:31:17;95042.00;;;14.20
15680;BMP180;15488;48.114;11.532;2023-03-12T10:33:49;95042.00;;;14.20
15680;BMP180;15488;48.114;11.532;2023-03-12T10:36:21;95040.00;;;14.20
15680;BMP180;15488;48.114;11.532;2023-03-12T10:38:51;95043.00;;;14.20
15680;BMP180;15488;48.114;11.532;2023-03-12T10:41:22;95045.00;;;14.20
15680;BMP180;15488;48.114;11.532;2023-03-12T10:43:50;95036.00;;;14.20
15680;BMP180;15488;48.114;11.532;2023-03-12T10:46:42;95037.00;;;14.20
15680;BMP180;15488;48.114;11.532;2023-03-12T10:49:32;95040.00;;;14.20
15680;BMP180;15488;48.114;11.532;2023-03-12T10:52:05;95047.00;;;14.20
15680;BMP180;15488;48.114;11.532;2023-03-12T10:54:35;95042.00;;;14.20
15680;BMP180;15488;48.114;11.532;2023-03-12T10:57:05;95038.00;;;14.20
15680;BMP180;15488;48.114;11.532;2023-03-12T10:59:35;95036.00;;;14.20
15680;BMP180;15488;48.114;11.532;2023-03-12T11:02:20;95057.00;;;14.20
15680;BMP180;15488;48.114;11.532;2023-03-12T11:04:52;95037.00;;;14.30
15680;BMP180;15488;48.114;11.532;2023-03-12T11:07:22;95043.00;;;14.30
15680;BMP180;15488;48.114;11.532;2023-03-12T11:10:12;95041.00;;;14.30
15680;BMP180;15488;48.114;11.532;2023-03-12T11:12:52;95033.00;;;14.30
15680;BMP180;15488;48.114;11.532;2023-03-12T11:15:22;95040.00;;;14.30
15680;BMP180;15488;48.114;11.532;2023-03-12T11:17:51;95043.00;;;14.40
15680;BMP180;15488;48.114;11.532;2023-03-12T11:20:25;95034.00;;;14.40
15680;BMP180;15488;48.114;11.532;2023-03-12T11:22:52;95029.00;;;14.50
15680;BMP180;15488;48.114;11.532;2023-03-12T11:25:22;95033.00;;;14.40
15680;BMP180;15488;48.114;11.532;2023-03-12T11:27:53;95035.00;;;14.50
15680;BMP180;15488;48.114;11.532;2023-03-12T11:30:23;95028.00;;;14.60
15680;BMP180;15488;48.114;11.532;2023-03-12T11:32:52;95024.00;;;14.60
15680;BMP180;15488;48.114;11.532;2023-03-12T11:35:29;95032.00;;;14.70
15680;BMP180;15488;48.114;11.532;2023-03-12T11:38:05;95023.00;;;14.70
15680;BMP180;15488;48.114;11.532;2023-03-12T11:40:55;95026.00;;;14.80
15680;BMP180;15488;48.114;11.532;2023-03-12T11:43:40;95025.00;;;14.80
15680;BMP180;15488;48.114;11.532;2023-03-12T11:46:22;95020.00;;;14.80
15680;BMP180;15488;48.114;11.532;2023-03-12T11:49:00;95023.00;;;14.90
15680;BMP180;15488;48.114;11.532;2023-03-12T11:51:37;95023.00;;;14.90
15680;BMP180;15488;48.114;11.532;2023-03-12T11:54:26;95013.00;;;15.00
15680;BMP180;15488;48.114;11.532;2023-03-12T11:56:58;95013.00;;;15.00
15680;BMP180;15488;48.114;11.532;2023-03-12T11:59:47;95018.00;;;15.00
15680;BMP180;15488;48.114;11.532;2023-03-12T12:02:34;95008.00;;;15.10
15680;BMP180;15488;48.114;11.532;2023-03-12T12:05:21;95010.00;;;15.20
15680;BMP180;15488;48.114;11.532;2023-03-12T12:08:08;95009.00;;;15.20
15680;BMP180;15488;48.114;11.532;2023-03-12T12:10:48;95009.00;;;15.20
15680;BMP180;15488;48.114;11.532;2023-03-12T12:13:24;95000.00;;;15.20
15680;BMP180;15488;48.114;11.532;2023-03-12T12:16:03;95011.00;;;15.20
15680;BMP180;15488;48.114;11.532;2023-03-12T12:18:49;95005.00;;;15.30
15680;BMP180;15488;48.114;11.532;2023-03-12T12:21:29;95007.00;;;15.30
15680;BMP180;15488;48.114;11.532;2023-03-12T12:24:06;95007.00;;;15.40
15680;BMP180;15488;48.114;11.532;2023-03-12T12:26:45;95006.00;;;15.40
15680;BMP180;15488;48.114;11.532;2023-03-12T12:29:24;95004.00;;;15.40
15680;BMP180;15488;48.114;11.532;2023-03-12T12:31:57;95005.00;;;15.50
15680;BMP180;15488;48.114;11.532;2023-03-12T12:34:52;95005.00;;;15.50
15680;BMP180;15488;48.114;11.532;2023-03-12T12:37:34;95004.00;;;15.50
15680;BMP180;15488;48.114;11.532;2023-03-12T12:40:13;95005.00;;;15.50
15680;BMP180;15488;48.114;11.532;2023-03-12T12:42:52;94996.00;;;15.50
15680;BMP180;15488;48.114;11.532;2023-03-12T12:45:22;95005.00;;;15.60
15680;BMP180;15488;48.114;11.532;2023-03-12T12:47:56;94998.00;;;15.60
15680;BMP180;15488;48.114;11.532;2023-03-12T12:50:28;95003.00;;;15.60
15680;BMP180;15488;48.114;11.532;2023-03-12T12:53:01;94997.00;;;15.60
15680;BMP180;15488;48.114;11.532;2023-03-12T12:55:34;94989.00;;;15.60
15680;BMP180;15488;48.114;11.532;2023-03-12T12:58:11;94991.00;;;15.70
15680;BMP180;15488;48.114;11.532;2023-03-12T13:00:44;94985.00;;;15.80
15680;BMP180;15488;48.114;11.532;2023-03-12T13:03:16;94996.00;;;15.80
15680;BMP180;15488;48.114;11.532;2023-03-12T13:05:52;94990.00;;;15.80
15680;BMP180;15488;48.114;11.532;2023-03-12T13:08:35;94988.00;;;15.80
15680;BMP180;15488;48.114;11.532;2023-03-12T13:11:05;94989.00;;;15.90
15680;BMP180;15488;48.114;11.532;2023-03-12T13:13:33;94989.00;;;15.90
15680;BMP180;15488;48.114;11.532;2023-03-12T13:16:26;94987.00;;;15.90
15680;BMP180;15488;48.114;11.532;2023-03-12T13:19:00;94986.00;;;15.90
15680;BMP180;15488;48.114;11.532;2023-03-12T13:21:36;94985.00;;;16.00
15680;BMP180;15488;48.114;11.532;2023-03-12T13:24:13;94987.00;;;16.10
15680;BMP180;15488;48.114;11.532;2023-03-12T13:26:50;94987.00;;;16.20
15680;BMP180;15488;48.114;11.532;2023-03-12T13:29:34;94995.00;;;16.20
15680;BMP180;15488;48.114;11.532;2023-03-12T13:32:03;94992.00;;;16.30
15680;BMP180;15488;48.114;11.532;2023-03-12T13:34:54;95000.00;;;16.40
15680;BMP180;15488;48.114;11.532;2023-03-12T13:40:54;94999.00;;;16.50
15680;BMP180;15488;48.114;11.532;2023-03-12T13:43:50;95002.00;;;16.60
15680;BMP180;15488;48.114;11.532;2023-03-12T13:46:40;94996.00;;;16.70
15680;BMP180;15488;48.114;11.532;2023-03-12T13:49:25;95004.00;;;16.80
15680;BMP180;15488;48.114;11.532;2023-03-12T13:51:59;95005.00;;;16.90
15680;BMP180;15488;48.114;11.532;2023-03-12T13:54:33;95012.00;;;16.90
15680;BMP180;15488;48.114;11.532;2023-03-12T13:57:03;95011.00;;;17.00
15680;BMP180;15488;48.114;11.532;2023-03-12T13:59:41;95011.00;;;17.00
15680;BMP180;15488;48.114;11.532;2023-03-12T14:02:18;95011.00;;;17.10
15680;BMP180;15488;48.114;11.532;2023-03-12T14:04:47;95012.00;;;17.10
15680;BMP180;15488;48.114;11.532;2023-03-12T14:07:29;95002.00;;;17.10
15680;BMP180;15488;48.114;11.532;2023-03-12T14:10:06;95001.00;;;17.10
15680;BMP180;15488;48.114;11.532;2023-03-12T14:12:45;94996.00;;;17.10
15680;BMP180;15488;48.114;11.532;2023-03-12T14:15:26;95002.00;;;17.20
15680;BMP180;15488;48.114;11.532;2023-03-12T14:17:57;95005.00;;;17.20
15680;BMP180;15488;48.114;11.532;2023-03-12T14:20:26;95007.00;;;17.30
15680;BMP180;15488;48.114;11.532;2023-03-12T14:22:59;95002.00;;;17.50